Time;durP1;ratioP1;P1;durP2;ratioP2;P2;SDS_P1;SDS_P2;PMS_P1;PMS_P2;Temp;Humidity;BMP_temperature;BMP_pressure;BME280_temperature;BME280_humidity;BME280_pressure;Samples;Min_cycle;Max_cycle;Signal;HPM_P1;HPM_P2
2023/10/08 00:01:35;;;;;;;9.73;3.90;;;18.00;50.10;;;;;;5051907;28;20171;-76
2023/10/08 00:04:04;;;;;;;8.50;3.20;;;17.90;99.90;;;;;;5052650;28;20182;-77
2023/10/08 00:06:30;;;;;;;9.30;3.83;;;18.00;1.00;;;;;;5053793;28;20262;-77
2023/10/08 00:09:20;;;;;;;9.60;4.50;;;17.90;1.00;;;;;;5053267;28;20210;-77
2023/10/08 00:11:43;;;;;;;7.47;4.00;;;17.90;74.30;;;;;;5053433;28;20191;-77
2023/10/08 00:14:09;;;;;;;9.47;4.10;;;17.90;15.20;;;;;;5052494;28;20643;-77
2023/10/08 00:16:35;;;;;;;6.33;3.53;;;17.90;61.90;;;;;;5053733;28;20252;-77
2023/10/08 00:19:08;;;;;;;5.50;3.63;;;17.90;1.00;;;;;;5053763;28;20258;-77
2023/10/08 00:21:35;;;;;;;9.47;4.07;;;17.90;1.00;;;;;;5052710;28;20167;-78
2023/10/08 00:24:05;;;;;;;8.43;4.27;;;17.80;20.30;;;;;;5052599;28;20176;-77
2023/10/08 00:26:32;;;;;;;9.13;4.20;;;17.80;99.90;;;;;;5053647;28;20160;-77
2023/10/08 00:29:15;;;;;;;6.03;3.47;;;17.80;99.90;;;;;;5051946;28;20182;-77
2023/10/08 00:31:44;;;;;;;7.90;3.90;;;17.80;1.00;;;;;;5049923;28;20668;-77
2023/10/08 00:34:14;;;;;;;7.87;3.80;;;17.70;99.90;;;;;;5044227;28;20175;-77
2023/10/08 00:36:44;;;;;;;5.33;3.60;;;17.70;99.90;;;;;;5049148;28;20297;-78
2023/10/08 00:39:13;;;;;;;11.13;4.13;;;17.70;1.00;;;;;;5038362;28;20605;-77
2023/10/08 00:41:42;;;;;;;11.03;4.10;;;17.70;1.00;;;;;;5042968;28;20469;-77
2023/10/08 00:44:08;;;;;;;6.03;3.87;;;17.70;1.00;;;;;;5053327;28;20457;-77
2023/10/08 00:46:42;;;;;;;6.83;3.70;;;17.60;1.00;;;;;;5052977;28;20183;-77
2023/10/08 00:54:39;;;;;;;6.83;3.50;;;17.60;1.00;;;;;;5052840;28;20151;-77
2023/10/08 00:57:05;;;;;;;11.10;4.27;;;17.60;99.90;;;;;;5053685;28;20484;-77
2023/10/08 00:59:45;;;;;;;7.33;4.27;;;17.50;1.00;;;;;;5051368;28;20186;-77
2023/10/08 01:02:14;;;;;;;9.97;4.33;;;17.60;1.00;;;;;;5052775;28;20190;-78
2023/10/08 01:04:43;;;;;;;8.67;4.10;;;17.50;1.00;;;;;;5051280;28;20179;-77
2023/10/08 01:07:12;;;;;;;8.97;4.13;;;17.50;1.00;;;;;;5052739;28;20532;-77
2023/10/08 01:09:42;;;;;;;8.07;4.23;;;17.50;62.20;;;;;;5052761;28;20175;-77
2023/10/08 01:12:22;;;;;;;8.90;3.70;;;17.40;99.90;;;;;;5052473;28;20187;-77
2023/10/08 01:14:49;;;;;;;7.40;4.23;;;17.50;99.90;;;;;;5051172;28;20192;-77
2023/10/08 01:17:16;;;;;;;13.57;4.37;;;17.40;99.90;;;;;;5051198;28;20176;-77
2023/10/08 01:19:54;;;;;;;9.27;4.57;;;17.40;99.90;;;;;;5051350;28;20171;-76
2023/10/08 01:22:21;;;;;;;8.10;4.30;;;17.40;1.00;;;;;;5051025;28;20191;-77
2023/10/08 01:24:48;;;;;;;9.90;4.33;;;17.30;1.00;;;;;;5051162;28;20209;-77
2023/10/08 01:27:24;;;;;;;10.60;4.47;;;17.40;1.00;;;;;;5051064;28;20180;-77
2023/10/08 01:29:53;;;;;;;11.37;4.27;;;17.30;1.00;;;;;;5050843;28;20615;-77
2023/10/08 01:32:21;;;;;;;7.13;4.00;;;17.30;1.00;;;;;;5052378;28;20200;-77
2023/10/08 01:34:48;;;;;;;11.63;3.80;;;17.30;1.00;;;;;;5050895;28;20218;-77
2023/10/08 01:37:17;;;;;;;7.77;4.00;;;17.20;58.80;;;;;;5051066;28;20215;-77
2023/10/08 01:39:46;;;;;;;7.23;3.57;;;17.20;1.00;;;;;;5051159;28;20256;-77
2023/10/08 01:42:23;;;;;;;6.17;4.03;;;17.20;1.00;;;;;;5050891;28;20231;-77
2023/10/08 01:44:50;;;;;;;11.47;4.23;;;17.10;1.00;;;;;;5051019;28;20278;-77
2023/10/08 01:47:16;;;;;;;5.43;3.20;;;17.20;99.90;;;;;;5052233;28;20174;-77
2023/10/08 01:49:45;;;;;;;8.10;4.37;;;17.10;1.00;;;;;;5052272;28;20250;-77
2023/10/08 01:52:21;;;;;;;9.87;4.23;;;17.10;99.90;;;;;;5050727;28;20690;-77
2023/10/08 01:54:49;;;;;;;7.40;3.63;;;17.10;99.90;;;;;;5052375;28;20186;-77
2023/10/08 01:57:16;;;;;;;8.63;4.30;;;17.10;99.90;;;;;;5050784;28;20172;-76
2023/10/08 01:59:44;;;;;;;6.67;3.77;;;16.90;99.90;;;;;;5052106;28;20647;-77
2023/10/08 02:02:09;;;;;;;9.37;4.37;;;17.10;1.00;;;;;;5050652;28;20694;-77
2023/10/08 02:04:35;;;;;;;10.47;4.40;;;17.00;1.00;;;;;;5051987;28;20172;-77
2023/10/08 02:07:07;;;;;;;8.90;4.10;;;17.00;1.00;;;;;;5050614;28;20172;-77
2023/10/08 02:09:37;;;;;;;11.00;3.97;;;17.00;99.90;;;;;;5050705;28;20229;-77
2023/10/08 02:12:03;;;;;;;9.43;4.13;;;17.00;32.70;;;;;;5051238;28;20378;-76
2023/10/08 02:14:31;;;;;;;11.83;4.47;;;17.00;1.00;;;;;;5050556;28;20171;-77
2023/10/08 02:17:01;;;;;;;12.33;4.40;;;16.90;1.00;;;;;;5050410;28;20181;-76
2023/10/08 02:19:27;;;;;;;10.20;4.13;;;17.00;99.90;;;;;;5051047;28;20176;-77
2023/10/08 02:21:54;;;;;;;12.43;4.60;;;16.90;1.00;;;;;;5051720;28;20282;-77
2023/10/08 02:24:22;;;;;;;11.70;4.43;;;16.90;99.90;;;;;;5051886;28;20164;-77
2023/10/08 02:26:47;;;;;;;7.93;4.20;;;16.90;1.00;;;;;;5051861;28;20175;-77
2023/10/08 02:29:14;;;;;;;8.23;4.10;;;16.90;99.90;;;;;;5050398;28;20172;-77
2023/10/08 02:31:40;;;;;;;7.50;4.10;;;16.80;1.00;;;;;;5051634;28;20236;-77
2023/10/08 02:34:10;;;;;;;10.60;4.57;;;16.70;1.00;;;;;;5054490;28;20171;-77
2023/10/08 02:36:36;;;;;;;8.07;3.73;;;16.80;1.00;;;;;;5055243;28;20187;-77
2023/10/08 02:39:13;;;;;;;9.63;3.77;;;16.80;99.90;;;;;;5055307;28;20183;-77
2023/10/08 02:41:41;;;;;;;8.90;3.47;;;16.70;1.00;;;;;;5055285;28;20264;-77
2023/10/08 02:44:10;;;;;;;8.47;4.10;;;16.70;99.90;;;;;;5055319;28;20160;-77
2023/10/08 02:46:47;;;;;;;8.03;4.00;;;16.60;99.90;;;;;;5054242;28;20603;-77
2023/10/08 02:49:22;;;;;;;10.60;4.60;;;16.60;1.00;;;;;;5053845;28;20492;-77
2023/10/08 02:51:53;;;;;;;8.53;4.17;;;16.60;1.00;;;;;;5054948;28;20266;-76
2023/10/08 02:54:31;;;;;;;8.23;4.27;;;16.60;99.90;;;;;;5055099;28;20692;-77
2023/10/08 02:56:58;;;;;;;8.83;4.20;;;16.50;99.90;;;;;;5053536;28;20183;-77
2023/10/08 02:59:28;;;;;;;9.13;4.27;;;16.50;99.90;;;;;;5054929;28;20167;-77
2023/10/08 03:01:56;;;;;;;12.27;3.93;;;16.50;99.90;;;;;;5053480;28;20296;-77
2023/10/08 03:04:22;;;;;;;8.67;3.83;;;16.40;99.90;;;;;;5054775;28;20627;-77
2023/10/08 03:06:49;;;;;;;8.43;4.00;;;16.40;99.90;;;;;;5054695;28;20549;-77
2023/10/08 03:09:25;;;;;;;7.27;3.93;;;16.40;99.90;;;;;;5054631;28;20697;-77
2023/10/08 03:11:52;;;;;;;8.20;4.27;;;16.50;99.90;;;;;;5054673;28;20187;-77
2023/10/08 03:14:21;;;;;;;7.60;4.07;;;16.40;99.90;;;;;;5053240;28;20176;-77
2023/10/08 03:16:51;;;;;;;9.93;4.57;;;16.40;99.90;;;;;;5054622;28;20172;-77
2023/10/08 03:19:20;;;;;;;6.20;3.80;;;16.40;99.90;;;;;;5054416;28;20196;-76
2023/10/08 03:21:56;;;;;;;9.23;4.43;;;16.40;99.90;;;;;;5052543;28;20234;-77
2023/10/08 03:27:07;;;;;;;8.43;4.13;;;16.50;99.90;;;;;;5054698;28;20166;-77
2023/10/08 03:29:42;;;;;;;11.20;4.40;;;16.40;1.00;;;;;;5054395;28;20152;-76
2023/10/08 03:32:17;;;;;;;8.40;4.40;;;16.40;99.90;;;;;;5037783;28;20564;-77
2023/10/08 03:34:47;;;;;;;6.57;3.77;;;16.30;99.90;;;;;;5034185;28;20222;-77
2023/10/08 03:37:21;;;;;;;8.73;3.80;;;16.30;1.00;;;;;;5032864;28;20227;-76
2023/10/08 03:42:39;;;;;;;9.07;3.93;;;16.40;1.00;;;;;;5034400;28;20211;-76
2023/10/08 03:45:12;;;;;;;12.43;4.53;;;16.20;99.90;;;;;;5033579;28;20148;-77
2023/10/08 03:47:39;;;;;;;12.93;4.47;;;16.20;1.00;;;;;;5033953;28;20536;-77
2023/10/08 03:50:09;;;;;;;8.67;4.67;;;16.20;1.00;;;;;;5032182;28;20279;-78
2023/10/08 03:52:38;;;;;;;10.97;4.70;;;16.20;1.00;;;;;;5053818;28;20671;-77
2023/10/08 03:57:48;;;;;;;7.57;4.47;;;16.20;1.00;;;;;;5053985;28;20166;-77
2023/10/08 04:00:31;;;;;;;9.60;4.30;;;16.20;1.00;;;;;;5053865;28;20175;-77
2023/10/08 04:03:07;;;;;;;9.80;4.40;;;16.20;1.00;;;;;;5053943;28;20180;-77
2023/10/08 04:05:44;;;;;;;11.43;4.60;;;16.20;1.00;;;;;;5052319;28;20168;-77
2023/10/08 04:08:42;;;;;;;12.23;4.60;;;16.10;1.00;;;;;;5053556;28;20152;-76
2023/10/08 04:13:53;;;;;;;8.07;4.40;;;16.20;1.00;;;;;;5053393;28;20344;-77
2023/10/08 04:16:18;;;;;;;17.87;4.93;;;16.10;1.00;;;;;;5053254;28;20294;-77
2023/10/08 04:18:50;;;;;;;9.93;5.00;;;16.10;1.00;;;;;;5051907;28;20606;-77
2023/10/08 04:21:20;;;;;;;10.83;4.77;;;16.10;1.00;;;;;;5052358;28;20156;-77
2023/10/08 04:23:51;;;;;;;8.13;4.30;;;16.10;1.00;;;;;;5052946;28;20187;-77
2023/10/08 04:26:17;;;;;;;9.37;4.77;;;16.00;1.00;;;;;;5051901;28;20168;-77
2023/10/08 04:28:43;;;;;;;9.20;4.07;;;16.20;1.00;;;;;;5051804;28;20183;-76
2023/10/08 04:31:15;;;;;;;9.57;4.57;;;16.10;1.00;;;;;;5053226;28;20677;-76
2023/10/08 04:33:44;;;;;;;7.60;4.40;;;16.10;99.90;;;;;;5053010;28;20238;-77
2023/10/08 04:36:10;;;;;;;9.50;4.83;;;16.10;1.00;;;;;;5051598;28;20311;-77
2023/10/08 04:38:40;;;;;;;9.50;4.00;;;16.10;1.00;;;;;;5052955;28;20168;-77
2023/10/08 04:41:09;;;;;;;7.97;4.23;;;16.10;1.00;;;;;;5052641;28;20235;-77
2023/10/08 04:43:38;;;;;;;9.77;4.80;;;16.10;1.00;;;;;;5052762;28;20191;-77
2023/10/08 04:46:31;;;;;;;10.80;4.93;;;16.10;1.00;;;;;;5052768;28;20639;-75
2023/10/08 04:48:58;;;;;;;6.83;4.10;;;16.00;1.00;;;;;;5052861;28;20167;-77
2023/10/08 04:51:24;;;;;;;11.00;4.50;;;16.10;1.00;;;;;;5052799;28;20183;-77
2023/10/08 04:53:49;;;;;;;10.27;4.53;;;16.00;1.00;;;;;;5051442;28;20192;-77
2023/10/08 04:56:18;;;;;;;12.13;3.87;;;16.00;99.90;;;;;;5050942;28;20309;-77
2023/10/08 04:58:47;;;;;;;8.87;4.43;;;16.00;99.90;;;;;;5052599;28;20178;-77
2023/10/08 05:01:17;;;;;;;8.40;4.30;;;16.00;1.00;;;;;;5053360;28;20907;-77
2023/10/08 05:17:11;;;;;;;10.40;4.00;;;15.90;99.90;;;;;;5052405;28;20183;-77
2023/10/08 05:25:07;;;;;;;9.43;3.83;;;15.90;99.90;;;;;;5052359;28;20191;-77
2023/10/08 05:30:25;;;;;;;9.17;3.47;;;15.90;1.00;;;;;;5052342;28;20226;-76
2023/10/08 05:38:21;;;;;;;6.70;3.60;;;15.90;1.00;;;;;;5072435;28;20175;-77
2023/10/08 05:43:48;;;;;;;11.77;4.37;;;15.90;99.90;;;;;;5072010;28;20201;-77
2023/10/08 05:57:14;;;;;;;9.03;4.80;;;15.70;1.00;;;;;;5032397;28;20307;-77
2023/10/08 06:05:23;;;;;;;12.60;5.40;;;15.60;1.00;;;;;;5071337;28;20627;-77
2023/10/08 06:13:02;;;;;;;12.23;4.60;;;15.60;99.90;;;;;;5074280;28;20202;-77
2023/10/08 06:15:44;;;;;;;11.90;4.73;;;15.70;1.00;;;;;;5076662;28;20540;-78
2023/10/08 06:18:10;;;;;;;13.23;5.23;;;15.60;99.90;;;;;;5077032;28;20242;-78
2023/10/08 06:20:39;;;;;;;8.33;4.50;;;15.70;1.00;;;;;;5075226;28;20205;-78
2023/10/08 06:23:07;;;;;;;10.17;4.37;;;15.80;1.00;;;;;;5075082;28;20191;-78
2023/10/08 06:25:44;;;;;;;8.00;4.40;;;15.70;53.40;;;;;;5076684;28;20262;-79
2023/10/08 06:28:19;;;;;;;9.87;4.47;;;15.70;99.90;;;;;;5076728;28;20532;-79
2023/10/08 06:30:53;;;;;;;10.93;4.50;;;15.70;1.00;;;;;;5075528;28;20194;-78
2023/10/08 06:33:20;;;;;;;9.80;3.70;;;15.70;1.00;;;;;;5076732;28;20281;-78
2023/10/08 06:36:01;;;;;;;8.80;4.17;;;15.80;99.90;;;;;;5075634;28;20205;-78
2023/10/08 06:38:32;;;;;;;7.87;3.83;;;15.80;23.00;;;;;;5076694;28;20151;-78
2023/10/08 06:43:43;;;;;;;9.37;4.27;;;15.80;1.00;;;;;;5066721;28;20244;-77
2023/10/08 06:46:12;;;;;;;9.40;4.60;;;15.80;1.00;;;;;;5055825;28;20530;-79
2023/10/08 06:48:41;;;;;;;8.70;4.47;;;15.80;99.90;;;;;;5055334;28;20184;-77
2023/10/08 06:51:13;;;;;;;8.73;3.57;;;15.80;99.90;;;;;;5053626;28;20190;-77
2023/10/08 06:53:40;;;;;;;8.77;4.07;;;15.80;99.90;;;;;;5053823;28;20231;-76
2023/10/08 06:56:05;;;;;;;9.53;4.00;;;15.70;99.90;;;;;;5054816;28;20230;-76
2023/10/08 06:58:32;;;;;;;9.37;4.57;;;15.80;99.90;;;;;;5075414;28;20607;-77
2023/10/08 07:00:58;;;;;;;9.80;4.73;;;15.70;1.00;;;;;;5073760;28;20214;-78
2023/10/08 07:03:24;;;;;;;11.17;3.93;;;15.80;1.00;;;;;;5073823;28;20681;-78
2023/10/08 07:05:57;;;;;;;9.43;4.43;;;15.80;1.00;;;;;;5073768;28;20174;-78
2023/10/08 07:08:24;;;;;;;8.03;3.93;;;15.80;1.00;;;;;;5075072;28;20155;-77
2023/10/08 07:10:51;;;;;;;8.93;4.70;;;15.80;1.00;;;;;;5073678;28;20493;-77
2023/10/08 07:13:17;;;;;;;8.30;4.07;;;15.70;1.00;;;;;;5074756;28;20191;-77
2023/10/08 07:15:44;;;;;;;6.07;3.50;;;15.80;12.90;;;;;;5062277;28;20191;-78
2023/10/08 07:18:14;;;;;;;10.40;3.83;;;15.90;15.10;;;;;;5054394;28;20160;-77
2023/10/08 07:20:45;;;;;;;8.20;3.93;;;15.80;36.70;;;;;;5054762;28;20167;-78
2023/10/08 07:23:24;;;;;;;10.20;4.37;;;15.80;82.50;;;;;;5055284;28;20647;-78
2023/10/08 07:26:01;;;;;;;5.70;3.13;;;15.90;99.90;;;;;;5056505;28;20223;-78
2023/10/08 07:28:29;;;;;;;8.13;4.47;;;15.90;99.90;;;;;;5054838;28;20167;-78
2023/10/08 07:30:54;;;;;;;9.13;4.30;;;15.90;99.90;;;;;;5054377;28;20221;-77
2023/10/08 07:33:24;;;;;;;8.80;4.37;;;15.90;99.90;;;;;;5055743;28;20230;-78
2023/10/08 07:35:57;;;;;;;13.83;5.13;;;15.90;99.90;;;;;;5058160;28;20187;-77
2023/10/08 07:38:29;;;;;;;7.93;4.83;;;15.90;22.00;;;;;;5058308;28;20666;-77
2023/10/08 07:40:55;;;;;;;10.37;5.03;;;15.80;1.00;;;;;;5054889;28;20148;-78
2023/10/08 07:43:22;;;;;;;12.97;4.80;;;15.90;99.90;;;;;;5054369;28;20198;-78
2023/10/08 07:45:47;;;;;;;14.87;5.23;;;15.90;1.00;;;;;;5054310;28;20225;-77
2023/10/08 07:48:13;;;;;;;12.27;4.93;;;15.80;99.90;;;;;;5054346;28;20187;-78
2023/10/08 07:50:46;;;;;;;11.93;5.07;;;15.90;1.00;;;;;;5054609;28;20179;-77
2023/10/08 07:53:17;;;;;;;8.40;4.60;;;15.90;99.90;;;;;;5052681;28;20195;-78
2023/10/08 07:55:50;;;;;;;8.97;4.77;;;15.90;99.90;;;;;;5052991;28;20229;-78
2023/10/08 07:58:15;;;;;;;9.30;5.03;;;15.90;1.00;;;;;;5053956;28;20221;-79
2023/10/08 08:00:42;;;;;;;11.50;5.43;;;16.00;51.50;;;;;;5054354;28;20206;-78
2023/10/08 08:03:07;;;;;;;9.47;5.03;;;15.80;1.00;;;;;;5048000;28;20203;-78
2023/10/08 08:05:34;;;;;;;10.10;5.43;;;16.00;1.00;;;;;;5049736;28;20180;-78
2023/10/08 08:08:05;;;;;;;14.20;6.03;;;16.00;1.00;;;;;;5043173;28;20165;-78
2023/10/08 08:10:36;;;;;;;12.47;6.00;;;16.10;1.00;;;;;;5040723;28;20555;-79
2023/10/08 08:13:05;;;;;;;13.87;6.20;;;16.10;99.90;;;;;;5076578;28;20245;-79
2023/10/08 08:15:32;;;;;;;14.50;5.97;;;16.20;23.90;;;;;;5074968;28;20248;-79
2023/10/08 08:17:58;;;;;;;11.53;5.50;;;16.20;97.40;;;;;;5075937;28;20178;-79
2023/10/08 08:20:34;;;;;;;13.30;5.43;;;16.30;1.00;;;;;;5060959;28;20180;-81
2023/10/08 08:23:06;;;;;;;11.57;6.17;;;16.30;1.00;;;;;;5051895;28;20697;-78
2023/10/08 08:25:45;;;;;;;11.80;6.30;;;16.30;95.70;;;;;;5055194;28;20155;-79
2023/10/08 08:28:17;;;;;;;17.73;6.83;;;16.40;96.00;;;;;;5054677;28;20185;-79
2023/10/08 08:30:46;;;;;;;18.17;6.13;;;16.40;1.00;;;;;;5053121;28;20199;-78
2023/10/08 08:33:13;;;;;;;12.93;6.20;;;16.40;65.30;;;;;;5052722;28;20195;-79
2023/10/08 08:35:39;;;;;;;13.20;6.23;;;16.40;99.90;;;;;;5056986;28;20199;-78
2023/10/08 08:38:05;;;;;;;12.17;5.90;;;16.40;99.90;;;;;;5055952;28;20190;-79
2023/10/08 08:40:34;;;;;;;15.23;5.77;;;16.50;1.00;;;;;;5055818;28;20178;-79
2023/10/08 08:43:04;;;;;;;16.37;6.33;;;16.50;1.00;;;;;;5053819;28;20261;-78
2023/10/08 08:45:33;;;;;;;16.83;6.80;;;16.50;99.90;;;;;;5054089;28;20163;-77
2023/10/08 08:47:59;;;;;;;15.63;5.83;;;16.50;1.00;;;;;;5052178;28;20186;-77
2023/10/08 08:50:26;;;;;;;19.00;7.00;;;16.60;1.00;;;;;;5053537;28;20171;-77
2023/10/08 08:52:52;;;;;;;14.43;6.77;;;16.60;1.00;;;;;;5052496;28;20544;-78
2023/10/08 08:55:20;;;;;;;22.10;8.23;;;16.70;13.10;;;;;;5052479;28;20222;-77
2023/10/08 08:57:53;;;;;;;23.57;8.70;;;16.70;73.80;;;;;;5052082;28;20651;-77
2023/10/08 09:00:19;;;;;;;24.90;8.83;;;16.80;97.90;;;;;;5053562;28;20186;-77
2023/10/08 09:02:47;;;;;;;26.33;9.87;;;16.80;29.80;;;;;;5052448;28;20191;-76
2023/10/08 09:05:23;;;;;;;26.53;9.73;;;16.80;1.00;;;;;;5052199;28;20225;-76
2023/10/08 09:07:58;;;;;;;24.57;8.70;;;16.80;99.90;;;;;;5051230;28;20199;-77
2023/10/08 09:10:28;;;;;;;25.60;9.43;;;16.90;1.00;;;;;;5052435;28;20229;-77
2023/10/08 09:12:53;;;;;;;30.53;12.00;;;17.00;1.00;;;;;;5052448;28;20192;-76
2023/10/08 09:15:22;;;;;;;34.77;12.97;;;17.00;24.20;;;;;;5050890;28;20249;-76
2023/10/08 09:17:49;;;;;;;36.30;12.77;;;17.10;99.90;;;;;;5050994;28;20321;-76
2023/10/08 09:20:15;;;;;;;40.53;13.17;;;17.00;99.90;;;;;;5049846;28;20239;-76
2023/10/08 09:22:41;;;;;;;35.13;12.70;;;17.00;1.00;;;;;;5052179;28;20586;-76
2023/10/08 09:25:07;;;;;;;41.20;14.43;;;16.90;1.00;;;;;;5050930;28;20186;-76
2023/10/08 09:27:33;;;;;;;35.63;13.77;;;17.00;1.00;;;;;;5050923;28;20273;-76
2023/10/08 09:29:59;;;;;;;33.93;12.53;;;17.00;1.00;;;;;;5049346;28;20191;-76
2023/10/08 09:32:25;;;;;;;28.87;13.10;;;17.00;99.90;;;;;;5046950;28;20221;-76
2023/10/08 09:34:52;;;;;;;34.93;12.40;;;17.10;99.90;;;;;;5051089;28;20171;-76
2023/10/08 09:37:21;;;;;;;32.90;13.27;;;17.00;99.90;;;;;;5052568;28;20243;-75
2023/10/08 09:39:51;;;;;;;51.27;17.80;;;17.00;1.00;;;;;;5050768;28;20172;-76
2023/10/08 09:42:18;;;;;;;53.83;20.07;;;17.00;45.90;;;;;;5050906;28;20214;-76
2023/10/08 09:44:44;;;;;;;47.73;18.27;;;17.00;1.00;;;;;;5054893;28;20665;-76
2023/10/08 09:47:12;;;;;;;37.90;16.13;;;17.00;49.40;;;;;;5056613;28;20243;-76
2023/10/08 09:49:48;;;;;;;33.73;15.20;;;17.00;99.90;;;;;;5056116;28;20159;-76
2023/10/08 09:52:16;;;;;;;32.37;12.87;;;17.00;99.90;;;;;;5054940;28;20567;-76
2023/10/08 09:55:11;;;;;;;18.20;9.50;;;17.10;99.90;;;;;;5055852;28;20199;-76
2023/10/08 09:57:37;;;;;;;20.83;8.47;;;17.00;99.90;;;;;;5033401;28;20245;-76
2023/10/08 10:00:10;;;;;;;14.90;8.47;;;17.00;99.90;;;;;;5035930;28;20687;-77
2023/10/08 10:02:37;;;;;;;15.80;8.17;;;17.00;99.90;;;;;;5036034;28;20188;-76
2023/10/08 10:05:03;;;;;;;15.27;7.50;;;17.00;99.90;;;;;;5035916;28;20172;-77
2023/10/08 10:07:29;;;;;;;21.30;7.30;;;17.00;99.90;;;;;;5047844;28;20180;-77
2023/10/08 10:09:55;;;;;;;15.90;7.17;;;17.00;99.90;;;;;;5055694;28;20220;-76
2023/10/08 10:12:30;;;;;;;15.07;6.53;;;17.00;95.20;;;;;;5055651;28;20546;-77
2023/10/08 10:14:57;;;;;;;18.50;7.70;;;17.00;99.90;;;;;;5054351;28;20174;-76
2023/10/08 10:17:25;;;;;;;15.70;7.53;;;17.10;1.00;;;;;;5054767;28;20229;-76
2023/10/08 10:20:00;;;;;;;18.70;7.13;;;17.00;1.00;;;;;;5055533;28;20551;-76
2023/10/08 10:22:35;;;;;;;17.77;6.93;;;17.00;99.90;;;;;;5053995;28;20192;-76
2023/10/08 10:25:14;;;;;;;24.07;7.20;;;17.10;99.90;;;;;;5054742;28;20266;-75
2023/10/08 10:27:42;;;;;;;19.93;7.23;;;17.10;41.50;;;;;;5053193;28;20294;-76
2023/10/08 10:30:16;;;;;;;17.97;8.07;;;17.10;99.90;;;;;;5055181;28;20305;-76
2023/10/08 10:32:46;;;;;;;15.40;10.30;;;17.10;99.90;;;;;;5055562;28;20206;-76
2023/10/08 10:35:18;;;;;;;27.87;11.90;;;17.10;99.90;;;;;;5055218;28;20611;-76
2023/10/08 10:37:51;;;;;;;30.07;16.17;;;17.10;99.90;;;;;;5052740;28;20547;-76
2023/10/08 10:40:28;;;;;;;29.50;17.90;;;17.10;99.90;;;;;;5053930;28;20278;-76
2023/10/08 10:42:56;;;;;;;32.13;18.90;;;17.10;91.10;;;;;;5056598;28;20198;-78
2023/10/08 10:45:40;;;;;;;26.53;17.97;;;17.10;99.90;;;;;;5053876;28;20183;-78
2023/10/08 10:48:25;;;;;;;30.90;18.10;;;17.00;83.90;;;;;;5056936;28;20237;-77
2023/10/08 10:53:33;;;;;;;29.53;17.53;;;17.20;1.00;;;;;;5057188;28;20202;-78
2023/10/08 10:56:09;;;;;;;24.90;15.50;;;17.10;21.40;;;;;;5055680;28;20204;-78
2023/10/08 10:58:39;;;;;;;28.23;15.90;;;17.20;1.00;;;;;;5057482;28;20163;-78
2023/10/08 11:01:07;;;;;;;22.50;14.33;;;17.20;99.90;;;;;;5055804;28;20178;-79
2023/10/08 11:03:34;;;;;;;22.27;12.20;;;17.20;1.00;;;;;;5055054;28;20657;-78
2023/10/08 11:06:05;;;;;;;19.53;10.23;;;17.10;1.00;;;;;;5056496;28;20229;-78
2023/10/08 11:08:35;;;;;;;17.07;9.23;;;17.10;1.00;;;;;;5057013;28;20563;-78
2023/10/08 11:11:05;;;;;;;15.97;8.17;;;17.10;1.00;;;;;;5055078;28;20183;-78
2023/10/08 11:13:37;;;;;;;14.97;7.63;;;17.00;1.00;;;;;;5054934;28;20618;-78
2023/10/08 11:16:05;;;;;;;16.80;7.67;;;16.90;96.10;;;;;;5056430;28;20188;-80
2023/10/08 11:18:32;;;;;;;14.83;7.17;;;16.90;1.00;;;;;;5056719;28;20663;-78
2023/10/08 11:21:22;;;;;;;16.83;6.63;;;16.90;1.00;;;;;;5056913;28;20580;-78
2023/10/08 11:23:55;;;;;;;15.07;7.07;;;16.90;1.00;;;;;;5054943;28;20210;-78
2023/10/08 11:26:32;;;;;;;9.13;5.47;;;17.00;1.00;;;;;;5055028;28;20180;-78
2023/10/08 11:29:02;;;;;;;12.03;5.60;;;17.00;1.00;;;;;;5056456;28;20526;-78
2023/10/08 11:31:29;;;;;;;11.47;5.60;;;17.00;1.00;;;;;;5054760;28;20734;-79
2023/10/08 11:34:08;;;;;;;11.53;5.27;;;17.00;99.90;;;;;;5056483;28;20655;-78
2023/10/08 11:36:48;;;;;;;12.73;5.10;;;17.00;99.90;;;;;;5056398;28;20184;-78
2023/10/08 11:39:21;;;;;;;9.50;4.63;;;17.10;99.90;;;;;;5055342;28;20570;-78
2023/10/08 11:42:25;;;;;;;14.67;5.00;;;17.10;84.00;;;;;;5056682;28;20160;-78
2023/10/08 11:44:52;;;;;;;8.87;4.53;;;17.10;1.00;;;;;;5056201;28;20589;-77
2023/10/08 11:47:21;;;;;;;8.83;4.70;;;17.20;62.70;;;;;;5055927;28;20564;-78
2023/10/08 11:49:50;;;;;;;8.37;4.83;;;17.20;1.00;;;;;;5055138;28;20712;-79
2023/10/08 11:52:16;;;;;;;9.50;4.43;;;17.20;16.60;;;;;;5057160;28;20188;-80
2023/10/08 11:54:43;;;;;;;10.90;4.37;;;17.20;1.00;;;;;;5056065;28;20178;-79
2023/10/08 11:57:09;;;;;;;13.53;4.03;;;17.20;1.00;;;;;;5054733;28;20176;-77
2023/10/08 11:59:39;;;;;;;9.20;4.60;;;17.10;1.00;;;;;;5054507;28;20172;-77
2023/10/08 12:02:08;;;;;;;7.20;3.77;;;17.20;99.90;;;;;;5054200;28;20394;-74
2023/10/08 12:04:33;;;;;;;10.60;3.73;;;17.20;99.90;;;;;;5053620;28;20200;-76
2023/10/08 12:07:02;;;;;;;9.87;4.77;;;17.30;99.90;;;;;;5052993;28;20226;-75
2023/10/08 12:09:28;;;;;;;7.57;4.70;;;17.20;79.90;;;;;;5053663;28;20271;-76
2023/10/08 12:11:56;;;;;;;11.37;5.83;;;17.40;99.90;;;;;;5052263;28;20290;-76
2023/10/08 12:14:26;;;;;;;10.33;5.57;;;17.40;1.00;;;;;;5053661;28;20176;-76
2023/10/08 12:16:52;;;;;;;10.90;4.57;;;17.40;99.90;;;;;;5052135;28;20199;-76
2023/10/08 12:19:17;;;;;;;10.43;5.40;;;17.40;1.00;;;;;;5052144;28;20647;-76
2023/10/08 12:21:46;;;;;;;10.20;5.67;;;17.50;99.90;;;;;;5052020;28;20534;-76
2023/10/08 12:24:12;;;;;;;10.37;4.97;;;17.40;46.40;;;;;;5052191;28;20210;-76
2023/10/08 12:26:45;;;;;;;11.37;6.03;;;17.40;99.90;;;;;;5053345;28;20171;-76
2023/10/08 12:29:14;;;;;;;9.87;5.00;;;17.30;99.90;;;;;;5051963;28;20195;-76
2023/10/08 12:31:40;;;;;;;10.20;5.47;;;17.30;1.00;;;;;;5051833;28;20224;-76
2023/10/08 12:34:05;;;;;;;15.20;5.53;;;17.30;99.90;;;;;;5053074;28;20207;-76
2023/10/08 12:36:36;;;;;;;10.20;5.07;;;17.30;1.00;;;;;;5051750;28;20206;-76
2023/10/08 12:39:08;;;;;;;11.47;5.03;;;17.30;99.90;;;;;;5051945;28;20615;-76
2023/10/08 12:41:38;;;;;;;11.03;4.47;;;17.40;1.00;;;;;;5051760;28;20176;-77
2023/10/08 12:44:07;;;;;;;9.83;4.87;;;17.40;8.30;;;;;;5052977;28;20167;-76
2023/10/08 12:46:33;;;;;;;9.60;4.57;;;17.50;99.90;;;;;;5053044;28;20168;-76
2023/10/08 12:49:01;;;;;;;10.17;4.67;;;17.40;1.00;;;;;;5053055;28;20200;-76
2023/10/08 12:51:31;;;;;;;10.07;4.90;;;17.40;99.90;;;;;;5051771;28;20172;-76
2023/10/08 12:54:06;;;;;;;8.77;4.53;;;17.40;1.00;;;;;;5052996;28;20156;-76
2023/10/08 12:56:38;;;;;;;9.93;4.77;;;17.30;1.00;;;;;;5051682;28;20192;-74
2023/10/08 12:59:07;;;;;;;13.73;4.57;;;17.30;1.00;;;;;;5053102;28;20269;-76
2023/10/08 13:01:40;;;;;;;15.90;5.73;;;17.30;99.90;;;;;;5052639;28;20171;-76
2023/10/08 13:04:15;;;;;;;7.67;5.03;;;17.30;99.90;;;;;;5052962;28;20155;-74
2023/10/08 13:06:45;;;;;;;10.70;5.27;;;17.30;1.00;;;;;;5051501;28;20174;-73
2023/10/08 13:09:12;;;;;;;7.97;5.37;;;17.30;1.00;;;;;;5052806;28;20198;-76
2023/10/08 13:11:39;;;;;;;10.13;4.97;;;17.30;1.00;;;;;;5052960;28;20207;-76
2023/10/08 13:14:05;;;;;;;7.13;4.77;;;17.20;1.00;;;;;;5052612;28;20550;-76
2023/10/08 13:16:31;;;;;;;10.87;4.50;;;17.30;58.60;;;;;;5052412;28;20215;-76
2023/10/08 13:18:58;;;;;;;9.53;4.43;;;17.20;96.70;;;;;;5051114;28;20186;-77
2023/10/08 13:21:28;;;;;;;8.00;5.00;;;17.20;25.90;;;;;;5051230;28;20270;-76
2023/10/08 13:24:02;;;;;;;7.50;4.50;;;17.20;99.90;;;;;;5051006;28;20222;-75
2023/10/08 13:26:31;;;;;;;9.47;4.73;;;17.20;99.90;;;;;;5052359;28;20580;-76
2023/10/08 13:29:00;;;;;;;8.57;4.27;;;17.20;99.90;;;;;;5052240;28;20254;-76
2023/10/08 13:31:27;;;;;;;8.13;4.30;;;17.10;99.90;;;;;;5052016;28;20195;-75
2023/10/08 13:33:56;;;;;;;8.17;4.40;;;17.30;99.90;;;;;;5052319;28;20209;-76
2023/10/08 13:36:23;;;;;;;7.23;4.47;;;17.30;1.00;;;;;;5052110;28;20192;-76
2023/10/08 13:38:49;;;;;;;9.57;4.60;;;17.30;99.90;;;;;;5050985;28;20613;-77
2023/10/08 13:41:15;;;;;;;8.20;4.37;;;17.40;99.90;;;;;;5051101;28;20184;-75
2023/10/08 13:43:45;;;;;;;5.63;3.87;;;17.40;99.90;;;;;;5052007;28;20615;-76
2023/10/08 13:46:13;;;;;;;10.10;4.40;;;17.50;1.00;;;;;;5052587;28;20636;-76
2023/10/08 13:48:40;;;;;;;12.33;4.80;;;17.50;1.00;;;;;;5052147;28;20182;-77
2023/10/08 13:51:14;;;;;;;9.13;4.13;;;17.50;1.00;;;;;;5050926;28;20202;-77
2023/10/08 13:53:44;;;;;;;9.13;4.27;;;17.40;99.90;;;;;;5050655;28;20590;-77
2023/10/08 13:56:11;;;;;;;6.00;4.33;;;17.50;99.90;;;;;;5050791;28;20230;-76
2023/10/08 13:58:41;;;;;;;8.13;4.73;;;17.50;99.90;;;;;;5050607;28;20639;-76
2023/10/08 14:01:19;;;;;;;7.20;4.43;;;17.50;1.00;;;;;;5050545;28;20215;-76
2023/10/08 14:03:55;;;;;;;9.23;5.20;;;17.50;1.00;;;;;;5052052;28;20593;-76
2023/10/08 14:06:22;;;;;;;9.33;5.20;;;17.40;99.90;;;;;;5050667;28;20171;-77
2023/10/08 14:08:54;;;;;;;10.40;5.07;;;17.40;99.90;;;;;;5050346;28;20187;-77
2023/10/08 14:11:24;;;;;;;10.90;5.07;;;17.40;1.00;;;;;;5051835;28;20314;-76
2023/10/08 14:13:52;;;;;;;10.93;4.70;;;17.40;1.00;;;;;;5051777;28;20628;-77